Time;durP1;ratioP1;P1;durP2;ratioP2;P2;SDS_P1;SDS_P2;PMS_P1;PMS_P2;Temp;Humidity;BMP_temperature;BMP_pressure;BME280_temperature;BME280_humidity;BME280_pressure;Samples;Min_cycle;Max_cycle;Signal;HPM_P1;HPM_P2
2022/10/31 00:02:08;;;;;;;3.50;2.08;;;;;;;22.97;40.21;97424.47;5155887;27;20023;-34
2022/10/31 00:04:33;;;;;;;3.03;1.52;;;;;;;22.91;40.19;97421.63;5155587;27;20068;-34
2022/10/31 00:06:59;;;;;;;4.70;1.80;;;;;;;22.99;40.39;97430.28;5155725;27;20026;-36
2022/10/31 00:09:24;;;;;;;4.05;1.60;;;;;;;22.99;40.40;97425.50;5155453;27;20033;-34
2022/10/31 00:11:50;;;;;;;3.70;1.85;;;;;;;23.00;39.97;97424.25;5155328;27;20103;-34
2022/10/31 00:14:15;;;;;;;2.58;1.60;;;;;;;23.00;39.97;97418.72;5155393;27;20034;-35
2022/10/31 00:16:41;;;;;;;3.53;2.17;;;;;;;22.96;40.30;97422.94;5155261;27;20033;-34
2022/10/31 00:19:08;;;;;;;5.38;1.73;;;;;;;22.91;40.27;97421.63;5155434;27;20027;-33
2022/10/31 00:21:34;;;;;;;3.72;1.88;;;;;;;22.92;39.94;97420.38;5155656;27;20080;-33
2022/10/31 00:24:00;;;;;;;1.98;1.55;;;;;;;22.98;40.09;97426.75;5155305;27;20033;-34
2022/10/31 00:26:30;;;;;;;3.58;1.50;;;;;;;23.00;39.82;97423.47;5155268;27;20420;-33
2022/10/31 00:28:59;;;;;;;2.15;1.48;;;;;;;22.93;40.25;97432.97;5155336;27;20019;-33
2022/10/31 00:31:25;;;;;;;3.17;1.65;;;;;;;22.90;40.02;97426.41;5155039;27;20435;-33
2022/10/31 00:33:50;;;;;;;4.28;1.45;;;;;;;22.91;39.89;97422.38;5155143;27;20113;-34
2022/10/31 00:36:18;;;;;;;5.43;1.83;;;;;;;22.92;39.80;97423.16;5155358;27;20031;-33
2022/10/31 00:38:44;;;;;;;3.90;1.52;;;;;;;22.94;40.04;97423.44;5154943;27;20011;-34
2022/10/31 00:41:16;;;;;;;4.45;2.03;;;;;;;22.86;40.05;97417.56;5155298;27;20026;-33
2022/10/31 00:43:42;;;;;;;1.95;1.30;;;;;;;22.88;39.72;97433.66;5155221;27;20027;-33
2022/10/31 00:46:07;;;;;;;2.75;1.50;;;;;;;22.89;39.58;97424.09;5154983;27;20059;-33
2022/10/31 00:48:33;;;;;;;2.90;1.70;;;;;;;22.90;39.90;97420.09;5155239;27;20532;-35
2022/10/31 00:50:59;;;;;;;4.55;1.83;;;;;;;22.88;39.92;97422.59;5154980;27;20030;-33
2022/10/31 00:53:24;;;;;;;3.03;1.50;;;;;;;22.87;39.67;97421.81;5154928;27;20394;-34
2022/10/31 00:55:50;;;;;;;2.53;1.75;;;;;;;22.90;39.41;97423.63;5154911;27;20375;-35
2022/10/31 00:58:15;;;;;;;3.55;1.65;;;;;;;22.88;39.95;97420.59;5154952;27;20030;-34
2022/10/31 01:00:41;;;;;;;2.45;1.58;;;;;;;22.91;39.40;97418.84;5154909;27;20031;-34
2022/10/31 01:03:07;;;;;;;3.05;1.70;;;;;;;22.88;39.46;97420.59;5154923;27;20031;-33
2022/10/31 01:05:32;;;;;;;5.63;1.85;;;;;;;22.83;39.92;97421.28;5155231;27;20482;-33
2022/10/31 01:07:59;;;;;;;2.42;1.40;;;;;;;22.87;39.46;97421.09;5155080;27;20010;-33
2022/10/31 01:10:24;;;;;;;4.13;1.50;;;;;;;22.86;39.85;97419.56;5154921;27;20022;-35
2022/10/31 01:12:50;;;;;;;2.47;1.35;;;;;;;22.88;39.73;97417.06;5154731;27;20041;-33
2022/10/31 01:15:19;;;;;;;4.97;1.60;;;;;;;22.84;39.39;97417.28;5158561;27;20027;-33
2022/10/31 01:17:44;;;;;;;3.70;1.35;;;;;;;22.84;39.71;97424.81;5158750;27;20022;-34
2022/10/31 01:20:13;;;;;;;3.13;1.50;;;;;;;22.84;39.82;97422.81;5158875;27;20023;-33
2022/10/31 01:22:38;;;;;;;3.20;1.48;;;;;;;22.83;39.53;97423.28;5158633;27;20111;-33
2022/10/31 01:25:04;;;;;;;2.85;1.30;;;;;;;22.85;39.69;97423.56;5149421;27;20474;-33
2022/10/31 01:27:31;;;;;;;2.67;1.45;;;;;;;22.86;39.41;97420.34;5137894;27;20471;-35
2022/10/31 01:29:57;;;;;;;2.55;1.42;;;;;;;22.86;39.27;97419.56;5137793;27;20034;-33
2022/10/31 01:32:22;;;;;;;3.45;1.58;;;;;;;22.83;39.77;97418.53;5137868;27;20031;-33
2022/10/31 01:34:48;;;;;;;3.40;1.40;;;;;;;22.86;39.36;97416.81;5137753;27;20015;-33
2022/10/31 01:37:13;;;;;;;2.65;1.50;;;;;;;22.86;39.65;97414.03;5137890;27;20026;-33
2022/10/31 01:39:39;;;;;;;2.95;1.60;;;;;;;22.85;39.22;97415.28;5137631;27;20027;-33
2022/10/31 01:42:04;;;;;;;2.42;1.45;;;;;;;22.82;39.65;97414.25;5137665;27;20019;-33
2022/10/31 01:44:30;;;;;;;2.63;1.38;;;;;;;22.79;39.41;97414.44;5137620;27;20042;-33
2022/10/31 01:47:04;;;;;;;2.65;1.52;;;;;;;22.79;39.59;97414.44;5137612;27;20090;-33
2022/10/31 01:49:32;;;;;;;2.85;1.52;;;;;;;22.74;39.64;97402.06;5137531;27;20027;-33
2022/10/31 01:52:04;;;;;;;3.80;1.45;;;;;;;22.77;39.54;97412.16;5137540;27;20102;-37
2022/10/31 01:54:34;;;;;;;3.35;1.58;;;;;;;22.77;39.39;97409.38;5137331;27;20091;-33
2022/10/31 01:57:02;;;;;;;3.28;1.83;;;;;;;22.79;39.38;97406.13;5137383;27;20040;-33
2022/10/31 01:59:32;;;;;;;4.07;1.88;;;;;;;22.78;39.24;97408.16;5137391;27;20031;-33
2022/10/31 02:01:57;;;;;;;3.78;1.25;;;;;;;22.78;39.26;97404.63;5137602;27;20102;-33
2022/10/31 02:04:25;;;;;;;3.05;1.45;;;;;;;22.78;39.36;97405.38;5137154;27;20098;-33
2022/10/31 02:07:04;;;;;;;2.67;1.33;;;;;;;22.78;39.35;97404.63;5137356;27;20026;-33
2022/10/31 02:09:31;;;;;;;2.75;1.20;;;;;;;22.76;39.50;97404.34;5155716;27;20105;-36
2022/10/31 02:11:59;;;;;;;3.88;1.27;;;;;;;22.77;39.33;97406.63;5157586;27;20038;-33
2022/10/31 02:14:27;;;;;;;3.78;1.63;;;;;;;22.74;39.08;97406.81;5157664;27;20038;-33
2022/10/31 02:16:53;;;;;;;3.25;1.50;;;;;;;22.73;39.29;97405.28;5158028;27;20027;-33
2022/10/31 02:19:34;;;;;;;3.75;1.33;;;;;;;22.74;39.33;97395.75;5157721;27;20030;-33
2022/10/31 02:22:26;;;;;;;2.75;1.25;;;;;;;22.76;39.35;97404.34;5139264;27;20354;-34
2022/10/31 02:25:15;;;;;;;2.08;1.23;;;;;;;22.75;39.44;97400.03;5157565;27;20476;-33
2022/10/31 02:28:09;;;;;;;5.45;2.17;;;;;;;22.75;39.43;97391.75;5157408;27;20102;-34
2022/10/31 02:31:11;;;;;;;2.17;1.30;;;;;;;22.77;39.27;97397.56;5157512;27;20478;-34
2022/10/31 02:33:45;;;;;;;2.40;1.10;;;;;;;22.74;39.42;97393.75;5157560;27;20027;-33
2022/10/31 02:36:39;;;;;;;3.03;1.42;;;;;;;22.74;39.03;97390.22;5157448;27;20026;-33
2022/10/31 02:39:18;;;;;;;;;;;;;;;22.75;39.20;97391.75;5157771;27;20015;-34
2022/10/31 02:42:07;;;;;;;3.25;1.40;;;;;;;22.76;39.08;97396.81;5157488;27;19911;-33
2022/10/31 02:44:49;;;;;;;3.75;1.58;;;;;;;22.72;39.21;97393.47;5157186;27;20062;-34
2022/10/31 02:47:17;;;;;;;3.22;1.60;;;;;;;22.71;39.13;97405.78;5157207;27;20018;-33
2022/10/31 02:50:04;;;;;;;1.83;1.10;;;;;;;22.69;39.08;97396.44;5157144;27;20371;-34
2022/10/31 02:52:32;;;;;;;2.33;1.40;;;;;;;22.71;39.13;97396.72;5156985;27;20095;-33
2022/10/31 02:54:58;;;;;;;3.28;1.27;;;;;;;22.70;39.15;97392.44;5157206;27;20078;-34
2022/10/31 02:57:34;;;;;;;2.90;1.33;;;;;;;22.70;39.47;97400.72;5157011;27;20023;-33
2022/10/31 03:00:05;;;;;;;2.33;1.40;;;;;;;22.70;39.25;97395.97;5156989;27;20031;-35
2022/10/31 03:02:46;;;;;;;3.30;1.30;;;;;;;22.73;39.05;97388.69;5157031;27;20027;-33
2022/10/31 03:05:23;;;;;;;2.65;1.30;;;;;;;22.68;38.98;97389.38;5156789;27;20048;-33
2022/10/31 03:07:54;;;;;;;2.67;1.33;;;;;;;22.68;39.08;97394.91;5156857;27;20451;-33
2022/10/31 03:10:44;;;;;;;3.88;1.40;;;;;;;22.69;39.40;97397.19;5156789;27;20079;-33
2022/10/31 03:13:28;;;;;;;1.65;1.20;;;;;;;22.66;39.10;97398.16;5156680;27;20505;-33
2022/10/31 03:16:01;;;;;;;2.97;1.50;;;;;;;22.66;39.07;97400.91;5156441;27;20035;-33
2022/10/31 03:18:38;;;;;;;3.97;1.20;;;;;;;22.69;38.97;97402.72;5156487;27;20106;-33
2022/10/31 03:21:13;;;;;;;2.60;1.40;;;;;;;22.68;39.14;97409.50;5156554;27;20091;-33
2022/10/31 03:23:40;;;;;;;2.90;1.40;;;;;;;22.68;39.27;97403.97;5156498;27;20029;-34
2022/10/31 03:26:10;;;;;;;1.95;1.05;;;;;;;22.67;39.03;97409.97;5156349;27;20037;-33
2022/10/31 03:28:51;;;;;;;4.65;1.50;;;;;;;22.68;39.47;97411.50;5156329;27;20484;-33
2022/10/31 03:31:19;;;;;;;3.40;1.42;;;;;;;22.65;39.11;97410.47;5156252;27;20026;-34
2022/10/31 03:33:47;;;;;;;2.35;1.40;;;;;;;22.65;38.94;97416.00;5156230;27;20050;-33
2022/10/31 03:36:15;;;;;;;3.95;1.60;;;;;;;22.68;39.09;97408.75;5155491;27;20079;-33
2022/10/31 03:38:42;;;;;;;3.25;1.30;;;;;;;;;;5156291;27;20351;-33
2022/10/31 03:41:13;;;;;;;2.05;1.40;;;;;;;22.64;38.96;97413.69;5155970;27;20022;-34
2022/10/31 03:43:46;;;;;;;4.72;1.73;;;;;;;22.63;39.18;97406.66;5156397;27;20067;-33
2022/10/31 03:46:12;;;;;;;4.53;1.75;;;;;;;22.62;39.37;97416.22;5156119;27;20070;-33
2022/10/31 03:48:38;;;;;;;3.55;1.40;;;;;;;22.61;39.03;97414.69;5155948;27;20027;-33
2022/10/31 03:51:28;;;;;;;2.25;1.30;;;;;;;22.64;39.07;97417.22;5155808;27;20469;-33
2022/10/31 03:54:22;;;;;;;5.18;1.40;;;;;;;22.65;39.24;97416.00;5137372;27;20385;-34
2022/10/31 03:57:00;;;;;;;9.00;2.10;;;;;;;22.72;38.90;97414.84;5123539;27;20030;-34
2022/10/31 03:59:54;;;;;;;4.88;1.20;;;;;;;22.72;38.87;97425.91;5155710;27;20031;-33
2022/10/31 04:02:25;;;;;;;3.63;1.50;;;;;;;22.73;38.84;97417.13;5134688;27;20031;-33
2022/10/31 04:04:51;;;;;;;3.47;1.27;;;;;;;22.68;39.25;97423.31;5155578;27;20101;-34
2022/10/31 04:07:20;;;;;;;3.92;1.33;;;;;;;22.67;39.12;97421.03;5155629;27;20015;-33
2022/10/31 04:09:50;;;;;;;1.92;1.40;;;;;;;22.66;38.87;97423.03;5155645;27;20355;-34
2022/10/31 04:12:16;;;;;;;1.63;1.30;;;;;;;22.66;39.09;97422.28;5155346;27;20539;-35
2022/10/31 04:14:45;;;;;;;2.22;1.25;;;;;;;22.66;39.00;97417.50;5155419;27;20382;-34
2022/10/31 04:17:15;;;;;;;2.58;1.33;;;;;;;22.69;38.74;97416.56;5155378;27;20029;-34
2022/10/31 04:19:40;;;;;;;3.00;1.63;;;;;;;22.70;39.01;97411.78;5155346;27;20053;-33
2022/10/31 04:22:06;;;;;;;3.15;1.40;;;;;;;22.71;38.91;97418.84;5155475;27;20046;-33
2022/10/31 04:24:31;;;;;;;3.72;1.38;;;;;;;22.69;38.76;97416.56;5155235;27;20110;-33
2022/10/31 04:26:57;;;;;;;3.65;1.40;;;;;;;22.66;39.08;97416.75;5155277;27;20018;-33
2022/10/31 04:29:23;;;;;;;2.60;1.30;;;;;;;22.73;38.85;97410.81;5155306;27;20122;-35
2022/10/31 04:31:48;;;;;;;1.67;1.45;;;;;;;22.68;38.91;97415.03;5155241;27;20062;-33
2022/10/31 04:34:14;;;;;;;3.05;1.60;;;;;;;22.68;39.14;97417.03;5155363;27;20038;-33
2022/10/31 04:36:39;;;;;;;4.78;1.58;;;;;;;22.65;39.19;97415.22;5155420;27;20490;-34
2022/10/31 04:39:05;;;;;;;3.28;1.52;;;;;;;22.64;39.26;97414.47;5155038;27;20019;-33
2022/10/31 04:41:30;;;;;;;6.65;1.83;;;;;;;22.61;39.36;97418.22;5155138;27;20037;-35
2022/10/31 04:43:57;;;;;;;3.38;1.48;;;;;;;22.59;38.96;97417.94;5155061;27;20030;-33
2022/10/31 04:46:22;;;;;;;3.40;1.67;;;;;;;22.59;39.17;97417.94;5155057;27;20026;-33
2022/10/31 04:48:48;;;;;;;4.30;1.65;;;;;;;22.66;38.88;97411.97;5156475;27;20114;-34
2022/10/31 04:51:13;;;;;;;2.60;1.40;;;;;;;22.66;38.84;97411.22;5159717;27;20488;-33
2022/10/31 04:53:39;;;;;;;6.72;1.67;;;;;;;22.64;38.95;97410.94;5159267;27;20026;-33
2022/10/31 04:56:05;;;;;;;3.08;1.52;;;;;;;22.62;39.00;97411.44;5159262;27;20022;-33
2022/10/31 04:58:30;;;;;;;2.60;1.45;;;;;;;22.61;38.74;97417.47;5159426;27;20350;-33
2022/10/31 05:00:56;;;;;;;2.20;1.50;;;;;;;22.61;38.68;97414.69;5140788;27;20381;-34
2022/10/31 05:03:22;;;;;;;4.35;1.70;;;;;;;22.60;39.15;97427.00;5159317;27;20355;-33
2022/10/31 05:05:47;;;;;;;4.15;1.52;;;;;;;22.56;38.92;97419.66;5159087;27;20027;-33
2022/10/31 05:08:14;;;;;;;4.40;1.63;;;;;;;22.61;39.14;97420.22;5159015;27;20015;-33
2022/10/31 05:10:40;;;;;;;3.50;1.75;;;;;;;22.61;38.70;97420.22;5159025;27;20027;-34
2022/10/31 05:13:06;;;;;;;3.72;1.60;;;;;;;22.60;38.62;97418.69;5158714;27;20041;-34
2022/10/31 05:15:32;;;;;;;3.22;2.00;;;;;;;22.60;38.73;97418.69;5159054;27;20033;-33
2022/10/31 05:17:58;;;;;;;3.28;1.50;;;;;;;22.64;38.89;97420.00;5158869;27;20426;-34
2022/10/31 05:20:26;;;;;;;4.00;1.77;;;;;;;22.61;38.54;97411.94;5158872;27;20029;-33
2022/10/31 05:22:54;;;;;;;3.97;1.70;;;;;;;22.56;38.62;97425.19;5158733;27;20033;-34
2022/10/31 05:25:21;;;;;;;2.50;1.42;;;;;;;22.66;38.63;97416.75;5158754;27;20019;-33
2022/10/31 05:27:49;;;;;;;3.22;1.55;;;;;;;22.62;38.86;97416.22;5158557;27;20029;-34
2022/10/31 05:30:21;;;;;;;4.47;1.73;;;;;;;22.62;38.75;97416.22;5158718;27;20519;-33
2022/10/31 05:32:49;;;;;;;3.90;1.80;;;;;;;22.61;38.84;97414.69;5158635;27;20026;-33
2022/10/31 05:35:23;;;;;;;3.67;1.60;;;;;;;22.58;38.51;97411.66;5158509;27;20030;-33
2022/10/31 05:37:49;;;;;;;2.88;1.50;;;;;;;22.56;38.89;97419.66;5158548;27;20114;-33
2022/10/31 05:40:16;;;;;;;2.85;1.70;;;;;;;22.61;38.47;97411.94;5158463;27;20069;-33
2022/10/31 05:42:42;;;;;;;2.53;1.40;;;;;;;22.62;38.70;97411.44;5158358;27;20031;-33
2022/10/31 05:45:10;;;;;;;3.92;1.88;;;;;;;22.63;38.57;97417.72;5158569;27;20152;-33
2022/10/31 05:47:36;;;;;;;4.90;1.90;;;;;;;22.64;38.72;97420.00;5158384;27;20043;-33
2022/10/31 05:50:03;;;;;;;3.63;1.75;;;;;;;22.61;38.55;97423.75;5158482;27;20098;-33
2022/10/31 05:52:28;;;;;;;2.30;1.63;;;;;;;22.61;38.57;97420.97;5158265;27;20027;-33
2022/10/31 05:54:54;;;;;;;5.68;2.15;;;;;;;22.60;38.41;97421.47;5158099;27;20030;-35
2022/10/31 05:57:19;;;;;;;3.45;1.75;;;;;;;22.52;38.54;97427.38;5158265;27;20116;-33
2022/10/31 05:59:45;;;;;;;4.50;2.08;;;;;;;22.53;38.75;97422.63;5157619;27;20470;-34
2022/10/31 06:02:10;;;;;;;5.15;1.50;;;;;;;22.55;38.45;97422.91;5158139;27;20025;-34
2022/10/31 06:04:36;;;;;;;3.58;1.63;;;;;;;22.61;38.43;97423.00;5158014;27;20031;-33
2022/10/31 06:07:01;;;;;;;4.93;2.22;;;;;;;22.55;38.91;97431.94;5158139;27;20015;-33
2022/10/31 06:09:26;;;;;;;4.25;1.80;;;;;;;22.55;38.82;97431.94;5158046;27;20026;-33
2022/10/31 06:11:52;;;;;;;2.88;1.63;;;;;;;22.58;38.74;97435.75;5157754;27;20038;-33
2022/10/31 06:14:18;;;;;;;5.13;2.10;;;;;;;22.60;38.58;97441.56;5158049;27;20517;-34
2022/10/31 06:16:44;;;;;;;4.63;1.88;;;;;;;22.57;38.66;97440.53;5157956;27;20030;-33
2022/10/31 06:19:09;;;;;;;3.20;1.88;;;;;;;22.53;38.88;97437.19;5157618;27;20475;-34
2022/10/31 06:21:35;;;;;;;4.00;1.95;;;;;;;22.53;38.79;97437.19;5139040;27;20034;-33
2022/10/31 06:24:00;;;;;;;3.70;1.75;;;;;;;22.56;38.45;97439.00;5157635;27;20027;-33
2022/10/31 06:26:26;;;;;;;3.95;1.90;;;;;;;22.58;38.75;97446.81;5157430;27;20105;-33
2022/10/31 06:28:51;;;;;;;2.50;1.80;;;;;;;22.57;38.81;97457.13;5158133;27;20079;-33
2022/10/31 06:31:17;;;;;;;2.92;1.63;;;;;;;22.57;38.63;97454.34;5157640;27;20014;-33
2022/10/31 06:33:42;;;;;;;6.38;2.42;;;;;;;22.63;38.85;97459.19;5152204;27;20027;-33
2022/10/31 06:36:08;;;;;;;4.82;1.90;;;;;;;22.56;39.07;97461.13;5133978;27;20023;-35
2022/10/31 06:38:34;;;;;;;6.03;2.38;;;;;;;22.62;38.71;97460.44;5127077;27;20034;-33
2022/10/31 06:41:04;;;;;;;3.80;1.75;;;;;;;22.60;38.60;97460.94;5129768;27;20417;-33
2022/10/31 06:43:29;;;;;;;4.07;2.15;;;;;;;22.59;38.90;97464.94;5129051;27;20022;-33
2022/10/31 06:45:55;;;;;;;3.88;2.00;;;;;;;22.56;38.78;97469.41;5129228;27;20041;-34
2022/10/31 06:48:20;;;;;;;3.25;2.03;;;;;;;22.57;39.07;97470.94;5128623;27;20023;-33
2022/10/31 06:50:46;;;;;;;6.43;2.25;;;;;;;22.58;38.79;97475.22;5128424;27;20050;-34
2022/10/31 06:53:12;;;;;;;5.80;2.40;;;;;;;22.57;38.93;97481.25;5128779;27;20835;-35
2022/10/31 06:55:38;;;;;;;5.53;2.80;;;;;;;22.56;39.06;97479.72;5128195;27;20030;-35
2022/10/31 06:58:03;;;;;;;4.63;2.35;;;;;;;22.57;39.20;97484.00;5132935;27;20023;-35
2022/10/31 07:00:30;;;;;;;4.35;2.33;;;;;;;22.55;39.40;97483.72;5134239;27;20118;-36
2022/10/31 07:03:11;;;;;;;6.18;2.33;;;;;;;22.57;39.20;97492.31;5143589;27;20030;-35
2022/10/31 07:05:36;;;;;;;4.38;2.20;;;;;;;22.56;39.53;97488.00;5136223;27;20087;-35
2022/10/31 07:08:05;;;;;;;6.97;2.75;;;;;;;22.55;39.11;97494.78;5154779;27;20596;-35
2022/10/31 07:10:33;;;;;;;3.50;2.20;;;;;;;22.62;39.30;97490.88;5154268;27;20037;-36
2022/10/31 07:13:01;;;;;;;5.30;2.35;;;;;;;22.64;39.13;97494.66;5153866;27;20461;-35
2022/10/31 07:15:28;;;;;;;6.70;2.60;;;;;;;22.58;39.31;97500.13;5154541;27;20030;-36
2022/10/31 07:17:53;;;;;;;4.63;2.65;;;;;;;22.60;39.26;97499.63;5154449;27;20030;-35
2022/10/31 07:20:19;;;;;;;5.72;3.00;;;;;;;22.54;39.77;97502.31;5154565;27;20378;-35
2022/10/31 07:22:45;;;;;;;5.97;3.47;;;;;;;22.61;39.61;97503.94;5135584;27;20022;-35
2022/10/31 07:25:10;;;;;;;4.88;3.15;;;;;;;22.67;39.56;97506.75;5154455;27;20058;-35
2022/10/31 07:27:40;;;;;;;5.50;2.55;;;;;;;22.63;39.72;97500.66;5153011;27;20026;-35
2022/10/31 07:30:06;;;;;;;8.00;2.50;;;;;;;22.65;39.51;97503.72;5133653;27;20027;-38
2022/10/31 07:32:40;;;;;;;5.90;2.65;;;;;;;22.65;39.76;97503.72;5133470;27;20034;-35
2022/10/31 07:35:07;;;;;;;3.22;2.30;;;;;;;22.60;40.06;97515.47;5115079;27;20060;-35
2022/10/31 07:37:36;;;;;;;4.78;2.60;;;;;;;22.53;40.21;97509.06;5131841;27;20072;-35
2022/10/31 07:40:03;;;;;;;5.82;2.60;;;;;;;22.62;39.75;97510.97;5133372;27;20058;-35
2022/10/31 07:42:29;;;;;;;5.03;2.30;;;;;;;22.58;40.07;97510.41;5133249;27;20528;-37
2022/10/31 07:44:54;;;;;;;5.53;2.63;;;;;;;22.65;39.72;97512.75;5132858;27;20031;-36
2022/10/31 07:47:20;;;;;;;8.38;3.13;;;;;;;22.66;39.92;97505.22;5133140;27;20090;-33
2022/10/31 07:49:45;;;;;;;4.93;2.33;;;;;;;22.63;39.98;97511.72;5133123;27;20023;-34
2022/10/31 07:52:11;;;;;;;4.70;2.40;;;;;;;22.61;40.41;97519.75;5133006;27;20027;-34
2022/10/31 07:54:36;;;;;;;5.00;2.30;;;;;;;22.57;40.56;97515.19;5133197;27;20110;-36
2022/10/31 07:57:02;;;;;;;7.65;2.70;;;;;;;22.60;40.56;97510.69;5132715;27;20456;-35
2022/10/31 07:59:33;;;;;;;3.80;2.25;;;;;;;22.68;40.27;97516.56;5132931;27;20063;-34
2022/10/31 08:02:00;;;;;;;5.53;2.47;;;;;;;22.67;40.25;97507.53;5132983;27;20053;-34
2022/10/31 08:04:25;;;;;;;5.40;2.42;;;;;;;22.64;40.39;97516.00;5132992;27;20030;-35
2022/10/31 08:06:51;;;;;;;4.72;2.10;;;;;;;22.66;40.47;97510.75;5132788;27;20023;-35
2022/10/31 08:09:16;;;;;;;4.82;2.10;;;;;;;22.69;40.28;97515.34;5132524;27;20031;-33
2022/10/31 08:11:42;;;;;;;4.90;2.30;;;;;;;22.68;40.29;97506.28;5132558;27;20443;-33
2022/10/31 08:14:07;;;;;;;3.78;2.08;;;;;;;22.61;40.79;97509.47;5132476;27;20042;-34
2022/10/31 08:16:33;;;;;;;4.90;2.33;;;;;;;22.64;40.48;97507.72;5132406;27;20030;-34
2022/10/31 08:18:59;;;;;;;3.33;2.08;;;;;;;22.64;40.88;97518.78;5132366;27;20468;-35
2022/10/31 08:21:24;;;;;;;4.47;2.05;;;;;;;22.69;40.63;97509.81;5132153;27;20027;-35
2022/10/31 08:23:50;;;;;;;4.00;2.05;;;;;;;22.65;40.83;97509.25;5132316;27;20019;-35
2022/10/31 08:26:15;;;;;;;6.70;2.22;;;;;;;22.62;40.96;97508.22;5132460;27;20408;-34
2022/10/31 08:28:40;;;;;;;4.05;1.80;;;;;;;22.60;41.09;97512.69;5132343;27;20041;-35
2022/10/31 08:31:07;;;;;;;5.93;2.92;;;;;;;22.59;40.74;97509.16;5147977;27;20027;-34
2022/10/31 08:33:32;;;;;;;4.45;1.80;;;;;;;22.55;41.24;97506.59;5155076;27;20079;-34
2022/10/31 08:35:58;;;;;;;3.15;1.80;;;;;;;22.52;41.22;97518.59;5155046;27;20420;-36
2022/10/31 08:38:24;;;;;;;2.85;1.85;;;;;;;22.36;41.48;97510.84;5155156;27;20054;-34
2022/10/31 08:40:49;;;;;;;3.28;2.00;;;;;;;22.58;41.33;97511.19;5155373;27;20026;-34
2022/10/31 08:43:16;;;;;;;5.13;1.90;;;;;;;22.58;41.03;97516.69;5154793;27;20015;-33
2022/10/31 08:45:44;;;;;;;2.92;1.83;;;;;;;22.57;41.49;97515.19;5155107;27;20031;-36
2022/10/31 08:48:12;;;;;;;4.05;1.83;;;;;;;22.51;41.77;97514.31;5155009;27;20093;-34
2022/10/31 08:50:38;;;;;;;3.72;1.88;;;;;;;22.64;41.45;97514.00;5155046;27;20018;-34
2022/10/31 08:53:06;;;;;;;3.38;2.10;;;;;;;22.51;41.66;97513.56;5155129;27;20031;-34
2022/10/31 08:55:36;;;;;;;6.97;2.55;;;;;;;22.01;44.45;97515.50;5154956;27;20019;-33
2022/10/31 08:58:03;;;;;;;5.03;2.28;;;;;;;21.86;46.02;97515.50;5154778;27;20374;-33
2022/10/31 09:00:29;;;;;;;9.90;2.40;;;;;;;21.60;46.19;97517.28;5154798;27;20026;-36
2022/10/31 09:02:59;;;;;;;4.00;2.00;;;;;;;22.03;45.07;97515.81;5154694;27;20023;-34
2022/10/31 09:05:25;;;;;;;6.55;2.08;;;;;;;22.19;44.41;97516.09;5154998;27;20539;-35
2022/10/31 09:07:50;;;;;;;3.25;1.63;;;;;;;22.46;43.22;97515.00;5154790;27;20027;-35
2022/10/31 09:10:16;;;;;;;8.02;1.85;;;;;;;22.38;44.15;97519.41;5154529;27;20068;-34
2022/10/31 09:12:41;;;;;;;3.08;1.55;;;;;;;22.41;44.07;97512.91;5154762;27;20483;-34
2022/10/31 09:15:08;;;;;;;7.85;2.53;;;;;;;22.10;44.93;97523.72;5154882;27;20030;-34
2022/10/31 09:17:33;;;;;;;3.33;1.95;;;;;;;22.19;44.55;97526.38;5154474;27;20424;-34
2022/10/31 09:19:59;;;;;;;4.00;1.90;;;;;;;22.44;43.51;97516.72;5154921;27;20027;-35
2022/10/31 09:22:24;;;;;;;3.05;1.70;;;;;;;22.37;43.75;97522.66;5154724;27;20031;-34
2022/10/31 09:24:50;;;;;;;2.65;1.70;;;;;;;22.40;43.86;97525.22;5154448;27;20054;-34
2022/10/31 09:27:15;;;;;;;4.50;1.73;;;;;;;22.56;43.13;97518.41;5154969;27;20348;-34
2022/10/31 09:29:41;;;;;;;4.18;2.17;;;;;;;22.54;43.74;97526.44;5154671;27;20022;-35
2022/10/31 09:32:06;;;;;;;5.40;1.90;;;;;;;22.68;42.88;97524.88;5154540;27;20079;-34
2022/10/31 09:34:31;;;;;;;3.72;1.92;;;;;;;22.68;43.16;97522.09;5155125;27;20034;-34
2022/10/31 09:36:57;;;;;;;3.55;1.70;;;;;;;22.67;43.08;97524.09;5158731;27;20026;-34
2022/10/31 09:39:22;;;;;;;7.53;1.85;;;;;;;22.57;44.08;97517.94;5158339;27;20041;-35
2022/10/31 09:42:21;;;;;;;3.03;1.77;;;;;;;22.33;45.26;97525.59;5158471;27;20018;-34
2022/10/31 09:45:23;;;;;;;3.33;2.35;;;;;;;22.48;44.22;97518.06;5158361;27;20033;-34
2022/10/31 09:48:00;;;;;;;2.03;1.58;;;;;;;22.68;43.17;97525.63;5158356;27;20019;-34
2022/10/31 09:50:34;;;;;;;6.07;2.10;;;;;;;22.50;44.24;97518.31;5158571;27;20018;-34
2022/10/31 09:53:05;;;;;;;3.38;1.60;;;;;;;22.61;43.72;97525.28;5158116;27;20470;-35
2022/10/31 09:55:47;;;;;;;2.42;1.70;;;;;;;22.77;42.92;97524.78;5158207;27;20037;-35
2022/10/31 09:58:20;;;;;;;3.88;1.80;;;;;;;22.76;42.99;97526.00;5158159;27;20093;-35
2022/10/31 10:00:47;;;;;;;3.50;1.70;;;;;;;22.78;42.97;97523.53;5158014;27;20035;-34
2022/10/31 10:03:34;;;;;;;2.72;1.70;;;;;;;22.76;42.83;97521.25;5158071;27;20030;-34
2022/10/31 10:06:08;;;;;;;5.10;1.95;;;;;;;22.79;42.81;97527.81;5157764;27;20022;-34
2022/10/31 10:08:35;;;;;;;2.38;1.80;;;;;;;22.78;42.60;97524.31;5158020;27;20050;-35
2022/10/31 10:11:27;;;;;;;3.00;1.60;;;;;;;22.80;42.88;97529.34;5157741;27;20026;-36
2022/10/31 10:13:57;;;;;;;3.05;1.33;;;;;;;22.83;42.47;97522.88;5157868;27;20083;-35
2022/10/31 10:16:47;;;;;;;3.58;1.80;;;;;;;22.84;42.54;97516.09;5157843;27;20022;-34
2022/10/31 10:19:50;;;;;;;3.72;1.70;;;;;;;22.79;42.54;97516.75;5157829;27;20038;-34
2022/10/31 10:22:40;;;;;;;3.20;1.75;;;;;;;22.81;42.54;97520.56;5157772;27;20412;-34
2022/10/31 10:25:12;;;;;;;2.50;1.52;;;;;;;22.84;42.63;97522.38;5157669;27;20482;-34
2022/10/31 10:27:55;;;;;;;3.80;1.52;;;;;;;22.82;42.42;97513.81;5157550;27;20071;-34
2022/10/31 10:30:26;;;;;;;3.15;1.95;;;;;;;22.87;42.74;97518.63;5157637;27;20033;-34
2022/10/31 10:32:57;;;;;;;3.55;1.70;;;;;;;22.87;42.58;97518.63;5157623;27;20026;-35
2022/10/31 10:35:28;;;;;;;2.85;1.95;;;;;;;22.87;42.64;97517.91;5157720;27;20083;-34
2022/10/31 10:38:04;;;;;;;4.28;1.70;;;;;;;22.83;42.42;97503.50;5157200;27;20026;-34
2022/10/31 10:40:29;;;;;;;2.45;1.40;;;;;;;22.84;42.54;97511.31;5157663;27;20026;-35
2022/10/31 10:43:25;;;;;;;2.60;1.35;;;;;;;22.86;42.51;97519.91;5157493;27;20029;-34
2022/10/31 10:49:03;;;;;;;3.85;1.88;;;;;;;22.87;42.53;97513.09;5157389;27;20025;-34
2022/10/31 10:51:44;;;;;;;3.85;2.08;;;;;;;22.85;42.86;97517.63;5157169;27;20030;-35
2022/10/31 10:54:13;;;;;;;3.92;1.70;;;;;;;22.89;42.74;97512.63;5157217;27;20018;-34
2022/10/31 10:56:45;;;;;;;6.93;1.95;;;;;;;22.91;42.50;97521.22;5157049;27;20026;-35
2022/10/31 10:59:15;;;;;;;2.60;1.95;;;;;;;22.89;42.41;97518.91;5156911;27;20023;-34
2022/10/31 11:01:41;;;;;;;6.45;2.03;;;;;;;22.90;42.51;97516.91;5156885;27;20022;-34
2022/10/31 11:04:34;;;;;;;4.20;1.95;;;;;;;22.89;42.63;97515.38;5156815;27;20021;-34
2022/10/31 11:07:08;;;;;;;3.95;1.88;;;;;;;22.89;42.57;97518.16;5156914;27;20680;-35
2022/10/31 11:09:35;;;;;;;3.38;1.98;;;;;;;22.89;42.97;97504.31;5157230;27;20019;-34
2022/10/31 11:12:15;;;;;;;2.50;1.75;;;;;;;22.90;42.60;97508.63;5156670;27;20042;-36
2022/10/31 11:14:51;;;;;;;5.55;2.00;;;;;;;22.93;42.62;97507.66;5156673;27;20423;-35
2022/10/31 11:17:25;;;;;;;3.08;1.70;;;;;;;22.94;42.76;97503.66;5156562;27;20155;-36
2022/10/31 11:20:23;;;;;;;3.40;1.73;;;;;;;22.91;43.04;97510.13;5156463;27;20071;-34
2022/10/31 11:22:49;;;;;;;2.70;1.65;;;;;;;22.93;42.79;97502.13;5142496;27;20034;-34
2022/10/31 11:25:24;;;;;;;3.30;1.65;;;;;;;22.96;43.06;97494.88;5156507;27;20021;-34
2022/10/31 11:28:04;;;;;;;3.08;1.77;;;;;;;22.97;42.79;97499.94;5156310;27;20037;-35
2022/10/31 11:30:35;;;;;;;3.53;1.90;;;;;;;22.98;43.13;97492.38;5156430;27;20117;-34
2022/10/31 11:33:01;;;;;;;3.92;1.83;;;;;;;22.97;42.85;97490.88;5156646;27;20023;-35
2022/10/31 11:35:27;;;;;;;3.60;1.90;;;;;;;22.99;42.74;97497.44;5156368;27;20377;-34
2022/10/31 11:37:58;;;;;;;3.17;1.58;;;;;;;22.97;42.84;97497.16;5155902;27;20591;-38
2022/10/31 11:40:26;;;;;;;3.03;1.58;;;;;;;23.00;42.91;97484.34;5156362;27;20026;-34
2022/10/31 11:42:54;;;;;;;4.90;1.60;;;;;;;23.00;42.80;97489.88;5156163;27;20033;-36
2022/10/31 11:45:22;;;;;;;4.00;1.83;;;;;;;23.00;42.45;97496.16;5155911;27;20027;-35
2022/10/31 11:47:50;;;;;;;5.75;2.05;;;;;;;22.99;42.45;97485.63;5155964;27;20075;-34
2022/10/31 11:50:23;;;;;;;6.10;1.63;;;;;;;22.98;42.43;97484.09;5155974;27;20022;-35